Dades meteomassalio
Diari Summary for Febrer 22, 2017 Units:  English    Metric   Both
« Previous Day
Next Day »
Diari Semanal Mensual Anual Personalitzat
  Maxima: Minima: Mijana:
Temperatura: TemperatureC °F 1.2 °F 8.4 °F
Rosada: DewpointC °F 0.2 °F 4 °F
Humitat: Humidity % 48 % 76 %
Velocitat del vent: WindSpeedKMH mph 0.0 mph 1.5 mph
Racha vent: WindSpeedGustKMH mph - -
Vent:- - ENE
Pressio: PressurehPa in 1020.5 in -
Pluja: 0.3 in    
Historical Graphs
 
 
Tabular Data for Febrer 22, 2017
Time Temperature Dew Point Pressure Wind Wind Speed Wind Gust Humidity Rainfall Rate (Hourly) solar Conditions
TemperatureC °F DewpointC °F PressurehPa in Calm     Humidity % HourlyPrecipMM in SolarRadiationWatts/m^2 W/m2 Conditions
00:04 3.4 °F 1.9 °F 1026.0 in Calm     90 % 0.0 in 0.0 W/m2 RA
00:09 3.4 °F 1.9 °F 1026.0 in Calm     90 % 0.0 in 0.0 W/m2 CLR
00:14 3.3 °F 1.8 °F 1026.3 in Calm     90 % 0.0 in 0.0 W/m2 CLR
00:19 3.1 °F 1.4 °F 1026.3 in Calm     89 % 0.0 in 0.0 W/m2 CLR
00:24 3.0 °F 1.5 °F 1026.3 in Calm     90 % 0.0 in 0.0 W/m2 CLR
00:29 3.0 °F 1.5 °F 1026.3 in Calm     90 % 0.0 in 0.0 W/m2 CLR
00:34 3.0 °F 1.7 °F 1026.3 in Calm     91 % 0.0 in 0.0 W/m2 CLR
00:39 3.1 °F 1.7 °F 1026.3 in Calm     91 % 0.0 in 0.0 W/m2 CLR
00:44 2.9 °F 1.4 °F 1026.3 in Calm     90 % 0.0 in 0.0 W/m2 CLR
00:49 2.9 °F 1.6 °F 1026.3 in Calm     91 % 0.0 in 0.0 W/m2 CLR
00:54 2.9 °F 1.6 °F 1026.0 in SSW 3.7 mph   91 % 0.0 in 0.0 W/m2 CLR
00:59 2.9 °F 1.6 °F 1026.0 in Calm     91 % 0.0 in 0.0 W/m2 CLR
01:04 2.9 °F 1.4 °F 1026.0 in Calm     90 % 0.0 in 0.0 W/m2 CLR
01:09 2.7 °F 1.2 °F 1026.0 in Calm     90 % 0.0 in 0.0 W/m2 CLR
01:14 2.6 °F 1.1 °F 1026.0 in Calm     90 % 0.0 in 0.0 W/m2 CLR
01:19 2.4 °F 1.1 °F 1026.0 in Calm     91 % 0.0 in 0.0 W/m2 CLR
01:24 2.4 °F 1.1 °F 1026.0 in Calm     91 % 0.0 in 0.0 W/m2 CLR
01:29 2.3 °F 1.0 °F 1026.0 in Calm     91 % 0.0 in 0.0 W/m2 CLR
01:34 2.3 °F 1.0 °F 1026.0 in Calm     91 % 0.0 in 0.0 W/m2 CLR
01:39 2.5 °F 1.3 °F 1026.0 in SW 1.9 mph 1.9 mph 92 % 0.0 in 0.0 W/m2 CLR
01:44 2.6 °F 1.4 °F 1026.0 in Calm     92 % 0.0 in 0.0 W/m2 CLR
01:49 2.4 °F 1.1 °F 1026.0 in Calm     91 % 0.0 in 0.0 W/m2 CLR
01:54 2.3 °F 1.0 °F 1026.0 in Calm     91 % 0.0 in 0.0 W/m2 CLR
01:59 2.3 °F 0.9 °F 1026.0 in Calm     91 % 0.0 in 0.0 W/m2 CLR
02:04 2.1 °F 0.8 °F 1026.3 in Calm     91 % 0.0 in 0.0 W/m2 CLR
02:09 2.0 °F 0.8 °F 1026.3 in Calm     92 % 0.0 in 0.0 W/m2 CLR
02:14 2.0 °F 0.8 °F 1026.3 in Calm     92 % 0.0 in 0.0 W/m2 CLR
02:19 1.9 °F 0.6 °F 1026.0 in Calm     91 % 0.0 in 0.0 W/m2 CLR
02:24 1.9 °F 0.6 °F 1026.0 in Calm     91 % 0.0 in 0.0 W/m2 CLR
02:29 1.9 °F 0.7 °F 1026.0 in Calm     92 % 0.0 in 0.0 W/m2 CLR
02:34 1.9 °F 0.7 °F 1026.0 in Calm     92 % 0.0 in 0.0 W/m2 CLR
02:39 1.9 °F 0.7 °F 1026.0 in Calm     92 % 0.0 in 0.0 W/m2 CLR
02:44 1.9 °F 0.8 °F 1026.0 in Calm     92 % 0.0 in 0.0 W/m2 CLR
02:49 2.0 °F 0.8 °F 1026.0 in Calm     92 % 0.0 in 0.0 W/m2 CLR
02:54 2.2 °F 1.1 °F 1026.0 in SW 3.7 mph   92 % 0.0 in 0.0 W/m2 CLR
02:59 2.3 °F 1.1 °F 1026.0 in Calm     92 % 0.0 in 0.0 W/m2 CLR
03:04 2.1 °F 0.9 °F 1026.0 in Calm     92 % 0.0 in 0.0 W/m2 CLR
03:09 1.9 °F 0.7 °F 1025.6 in Calm     92 % 0.0 in 0.0 W/m2 CLR
03:14 1.8 °F 0.7 °F 1025.6 in Calm     92 % 0.0 in 0.0 W/m2 CLR
03:19 1.8 °F 0.7 °F 1025.6 in Calm     92 % 0.0 in 0.0 W/m2 CLR
03:24 1.8 °F 0.6 °F 1025.6 in Calm     92 % 0.0 in 0.0 W/m2 CLR
03:29 1.8 °F 0.7 °F 1025.6 in Calm     92 % 0.0 in 0.0 W/m2 CLR
03:34 1.7 °F 0.6 °F 1025.6 in Calm     92 % 0.0 in 0.0 W/m2 CLR
03:39 1.6 °F 0.4 °F 1025.6 in Calm     92 % 0.0 in 0.0 W/m2 CLR
03:44 1.4 °F 0.3 °F 1025.6 in Calm     92 % 0.0 in 0.0 W/m2 CLR
03:49 1.5 °F 0.3 °F 1025.6 in Calm     92 % 0.0 in 0.0 W/m2 CLR
03:54 1.6 °F 0.6 °F 1025.6 in Calm     93 % 0.0 in 0.0 W/m2 CLR
03:59 1.7 °F 0.7 °F 1025.6 in Calm     93 % 0.0 in 0.0 W/m2 CLR
04:04 1.6 °F 0.4 °F 1025.6 in Calm     92 % 0.0 in 0.0 W/m2 CLR
04:10 1.6 °F 0.6 °F 1025.3 in Calm     93 % 0.0 in 0.0 W/m2 CLR
04:15 1.7 °F 0.7 °F 1025.6 in WSW 3.7 mph 3.7 mph 93 % 0.0 in 0.0 W/m2 CLR
04:20 1.9 °F 0.9 °F 1025.3 in Calm     93 % 0.0 in 0.0 W/m2 CLR
04:25 1.8 °F 0.8 °F 1025.3 in Calm     93 % 0.0 in 0.0 W/m2 CLR
04:30 1.7 °F 0.6 °F 1025.3 in Calm     92 % 0.0 in 0.0 W/m2 CLR
04:35 1.6 °F 0.4 °F 1025.3 in Calm     92 % 0.0 in 0.0 W/m2 CLR
04:40 1.4 °F 0.3 °F 1025.3 in Calm     92 % 0.0 in 0.0 W/m2 CLR
04:45 1.3 °F 0.2 °F 1025.6 in Calm     92 % 0.0 in 0.0 W/m2 CLR
04:50 1.5 °F 0.5 °F 1025.3 in WSW 5.6 mph 5.6 mph 93 % 0.0 in 0.0 W/m2 CLR
04:55 1.8 °F 0.8 °F 1025.6 in SW 5.6 mph 5.6 mph 93 % 0.0 in 0.0 W/m2 CLR
05:00 1.8 °F 0.8 °F 1025.6 in Calm     93 % 0.0 in 0.0 W/m2 CLR
05:05 1.8 °F 0.8 °F 1025.6 in Calm     93 % 0.0 in 0.0 W/m2 CLR
05:10 1.8 °F 0.8 °F 1025.6 in Calm     93 % 0.0 in 0.0 W/m2 CLR
05:15 1.6 °F 0.4 °F 1025.6 in Calm     92 % 0.0 in 0.0 W/m2 CLR
05:20 1.5 °F 0.3 °F 1025.6 in Calm     92 % 0.0 in 0.0 W/m2 CLR
05:25 1.4 °F 0.3 °F 1025.6 in Calm     92 % 0.0 in 0.0 W/m2 CLR
05:30 1.4 °F 0.4 °F 1025.6 in Calm     93 % 0.0 in 0.0 W/m2 CLR
05:35 1.4 °F 0.4 °F 1025.6 in Calm     93 % 0.3 in 0.0 W/m2 RA
05:40 1.4 °F 0.4 °F 1025.6 in Calm     93 % 0.3 in 0.0 W/m2
05:45 1.4 °F 0.4 °F 1025.6 in Calm     93 % 0.3 in 0.0 W/m2 CLR
05:50 1.4 °F 0.4 °F 1025.6 in Calm     93 % 0.3 in 0.0 W/m2 CLR
05:55 1.4 °F 0.4 °F 1025.6 in Calm     93 % 0.3 in 0.0 W/m2 CLR
06:00 1.5 °F 0.5 °F 1025.6 in Calm     93 % 0.3 in 0.0 W/m2 CLR
06:05 1.4 °F 0.4 °F 1025.6 in Calm     93 % 0.3 in 0.0 W/m2 CLR
06:10 1.4 °F 0.4 °F 1025.6 in Calm     93 % 0.3 in 0.0 W/m2 CLR
06:15 1.4 °F 0.4 °F 1025.6 in Calm     93 % 0.3 in 0.0 W/m2 CLR
06:20 1.3 °F 0.3 °F 1025.6 in Calm     93 % 0.3 in 0.0 W/m2 CLR
06:25 1.3 °F 0.3 °F 1025.6 in Calm     93 % 0.3 in 0.0 W/m2 CLR
06:30 1.2 °F 0.2 °F 1025.6 in Calm     93 % 0.3 in 0.0 W/m2 CLR
06:35 1.3 °F 0.3 °F 1025.6 in Calm     93 % 0.0 in 0.0 W/m2 CLR
06:40 1.4 °F 0.4 °F 1025.6 in Calm     93 % 0.0 in 0.0 W/m2 CLR
06:45 1.4 °F 0.4 °F 1025.6 in Calm     93 % 0.0 in 0.0 W/m2 CLR
06:50 1.4 °F 0.4 °F 1025.3 in Calm     93 % 0.0 in 0.0 W/m2 CLR
06:55 1.3 °F 0.3 °F 1025.6 in Calm     93 % 0.0 in 0.0 W/m2 CLR
07:00 1.3 °F 0.3 °F 1025.6 in Calm     93 % 0.0 in 0.0 W/m2 CLR
07:05 1.4 °F 0.4 °F 1025.6 in Calm     93 % 0.0 in 0.0 W/m2 CLR
07:10 1.6 °F 0.6 °F 1025.6 in Calm     93 % 0.0 in 0.0 W/m2 CLR
07:15 1.6 °F 0.6 °F 1025.6 in Calm     93 % 0.0 in 0.0 W/m2 CLR
07:20 1.5 °F 0.5 °F 1025.6 in Calm     93 % 0.0 in 0.0 W/m2 CLR
07:25 1.4 °F 0.4 °F 1025.6 in Calm     93 % 0.0 in 0.0 W/m2 CLR
07:30 1.4 °F 0.4 °F 1025.6 in Calm     93 % 0.0 in 0.0 W/m2 CLR
07:35 1.3 °F 0.3 °F 1026.0 in Calm     93 % 0.0 in 0.0 W/m2 OVC
07:40 1.3 °F 0.3 °F 1026.0 in Calm     93 % 0.0 in 0.0 W/m2 OVC
07:45 1.3 °F 0.3 °F 1026.0 in Calm     93 % 0.0 in 0.0 W/m2 OVC
07:50 1.3 °F 0.3 °F 1026.0 in Calm     93 % 0.0 in 7.0 W/m2 OVC
07:55 1.3 °F 0.3 °F 1026.0 in Calm     93 % 0.0 in 11.0 W/m2 BKN
08:00 1.4 °F 0.4 °F 1026.0 in Calm     93 % 0.0 in 14.0 W/m2 BKN
08:05 1.5 °F 0.5 °F 1026.0 in Calm     93 % 0.0 in 19.0 W/m2 BKN
08:10 1.4 °F 0.4 °F 1026.0 in Calm     93 % 0.0 in 21.0 W/m2 BKN
08:15 1.6 °F 0.6 °F 1026.0 in Calm     93 % 0.0 in 25.0 W/m2 BKN
08:20 1.7 °F 0.7 °F 1026.0 in Calm     93 % 0.0 in 30.0 W/m2 BKN
08:25 1.7 °F 0.7 °F 1026.0 in Calm     93 % 0.0 in 35.0 W/m2 BKN
08:30 1.8 °F 0.8 °F 1026.0 in Calm     93 % 0.0 in 49.0 W/m2 SCT
08:35 1.9 °F 0.9 °F 1026.0 in Calm     93 % 0.0 in 63.0 W/m2 SCT
08:40 2.1 °F 1.1 °F 1026.0 in Calm     93 % 0.0 in 74.0 W/m2 FEW
08:45 2.1 °F 1.1 °F 1026.0 in Calm     93 % 0.0 in 86.0 W/m2 FEW
08:50 2.4 °F 1.5 °F 1026.3 in Calm     94 % 0.0 in 105.0 W/m2 FEW
08:55 2.6 °F 1.7 °F 1026.3 in Calm     94 % 0.0 in 128.0 W/m2 CLR
09:00 2.9 °F 2.0 °F 1026.0 in Calm     94 % 0.0 in 142.0 W/m2 CLR
09:05 3.3 °F 2.3 °F 1026.0 in Calm     93 % 0.0 in 118.0 W/m2 CLR
09:10 3.5 °F 2.5 °F 1026.0 in Calm     93 % 0.0 in 176.0 W/m2 CLR
09:15 4.0 °F 3.1 °F 1026.0 in Calm     94 % 0.0 in 197.0 W/m2 CLR
09:20 4.4 °F 3.4 °F 1026.0 in Calm     93 % 0.0 in 220.0 W/m2 CLR
09:25 4.9 °F 3.8 °F 1026.0 in Calm     93 % 0.0 in 236.0 W/m2 CLR
09:30 5.4 °F 4.4 °F 1026.0 in Calm     93 % 0.0 in 253.0 W/m2 CLR
09:35 5.9 °F 4.6 °F 1026.0 in Calm     91 % 0.0 in 262.0 W/m2 CLR
09:40 6.3 °F 4.8 °F 1026.0 in Calm     90 % 0.0 in 276.0 W/m2 CLR
09:41 6.4 °F 4.9 °F 1026.0 in Calm     90 % 0.0 in 276.0 W/m2 CLR
09:46 6.9 °F 5.1 °F 1026.0 in Calm     88 % 0.0 in 287.0 W/m2 CLR
09:51 7.1 °F 4.8 °F 1025.6 in Calm     85 % 0.0 in 301.0 W/m2 CLR
09:56 7.4 °F 4.8 °F 1025.6 in Calm     84 % 0.0 in 309.0 W/m2 CLR
10:01 7.7 °F 5.0 °F 1025.6 in Calm     83 % 0.0 in 323.0 W/m2 CLR
10:06 8.1 °F 4.8 °F 1025.6 in Calm     80 % 0.0 in 313.0 W/m2 CLR
10:11 8.4 °F 4.9 °F 1025.3 in Calm     79 % 0.0 in 350.0 W/m2 CLR
10:16 8.8 °F 5.2 °F 1025.3 in Calm     78 % 0.0 in 369.0 W/m2 CLR
10:21 9.3 °F 5.5 °F 1025.3 in Calm     77 % 0.0 in 385.0 W/m2 CLR
10:26 9.8 °F 5.4 °F 1025.3 in Calm     74 % 0.0 in 387.0 W/m2 CLR
10:31 10.1 °F 5.3 °F 1025.3 in Calm     72 % 0.0 in 403.0 W/m2 CLR
10:36 10.4 °F 5.3 °F 1025.3 in Calm     71 % 0.0 in 413.0 W/m2 CLR
10:41 10.8 °F 5.7 °F 1025.3 in Calm     71 % 0.0 in 424.0 W/m2 CLR
10:46 11.2 °F 5.7 °F 1025.3 in Calm     69 % 0.0 in 434.0 W/m2 CLR
10:51 11.7 °F 5.5 °F 1025.3 in Calm     66 % 0.0 in 457.0 W/m2 CLR
10:56 12.2 °F 5.8 °F 1025.3 in Calm     65 % 0.0 in 461.0 W/m2 CLR
11:01 12.4 °F 5.8 °F 1024.9 in Calm     64 % 0.0 in 464.0 W/m2 CLR
11:06 12.4 °F 5.6 °F 1024.9 in Calm     63 % 0.0 in 452.0 W/m2 CLR
11:11 12.5 °F 5.9 °F 1024.9 in Calm     64 % 0.0 in 476.0 W/m2 CLR
11:16 12.7 °F 6.1 °F 1024.9 in ENE 4.8 mph 4.8 mph 64 % 0.0 in 466.0 W/m2 CLR
11:21 12.8 °F 6.1 °F 1024.9 in ENE 9.3 mph 9.3 mph 64 % 0.0 in 496.0 W/m2 CLR
11:26 12.7 °F 6.3 °F 1024.9 in NE 9.3 mph 9.3 mph 65 % 0.0 in 496.0 W/m2 CLR
11:31 12.7 °F 6.3 °F 1024.9 in NE 11.3 mph 11.3 mph 65 % 0.0 in 512.0 W/m2 CLR
11:36 12.6 °F 6.4 °F 1024.9 in NE 13.0 mph 13.0 mph 66 % 0.0 in 482.0 W/m2 CLR
11:41 12.5 °F 6.3 °F 1024.9 in NE 11.1 mph 11.1 mph 66 % 0.0 in 420.0 W/m2 CLR
11:46 12.4 °F 6.2 °F 1024.9 in ENE 13.0 mph 13.0 mph 66 % 0.0 in 431.0 W/m2 CLR
11:51 12.3 °F 6.4 °F 1024.9 in East 9.7 mph 9.7 mph 67 % 0.0 in 454.0 W/m2 CLR
11:56 12.3 °F 6.3 °F 1024.9 in East 9.3 mph 9.3 mph 67 % 0.0 in 450.0 W/m2 CLR
12:01 12.3 °F 6.3 °F 1024.9 in ENE 11.3 mph 11.3 mph 67 % 0.0 in 411.0 W/m2 CLR
12:06 12.2 °F 6.3 °F 1024.9 in NE 9.3 mph 9.3 mph 67 % 0.0 in 476.0 W/m2 CLR
12:11 12.4 °F 6.4 °F 1024.9 in NE 11.3 mph 11.3 mph 67 % 0.0 in 531.0 W/m2 CLR
12:16 12.6 °F 6.4 °F 1024.9 in ENE 8.0 mph 8.0 mph 66 % 0.0 in 548.0 W/m2 CLR
12:21 12.8 °F 6.3 °F 1024.6 in ENE 7.4 mph 7.4 mph 65 % 0.0 in 596.0 W/m2 CLR
12:26 13.0 °F 6.6 °F 1024.6 in ENE 7.4 mph 7.4 mph 65 % 0.0 in 580.0 W/m2 CLR
12:31 13.2 °F 6.6 °F 1024.6 in ENE 9.3 mph 9.3 mph 64 % 0.0 in 538.0 W/m2 CLR
12:36 13.4 °F 6.7 °F 1024.6 in East 8.0 mph 8.0 mph 64 % 0.0 in 559.0 W/m2 CLR
12:41 13.4 °F 6.3 °F 1024.6 in East 5.6 mph 5.6 mph 62 % 0.0 in 548.0 W/m2 CLR
12:46 13.6 °F 6.4 °F 1024.6 in East 9.3 mph 9.3 mph 62 % 0.0 in 515.0 W/m2 CLR
12:51 13.7 °F 6.5 °F 1024.3 in ENE 5.6 mph 5.6 mph 62 % 0.0 in 631.0 W/m2 CLR
12:56 13.8 °F 6.4 °F 1024.3 in ENE 7.4 mph 7.4 mph 61 % 0.0 in 638.0 W/m2 CLR
13:01 14.1 °F 6.7 °F 1024.3 in ENE 3.7 mph 3.7 mph 61 % 0.0 in 629.0 W/m2 CLR
13:06 14.3 °F 6.6 °F 1024.3 in Calm     60 % 0.0 in 629.0 W/m2 CLR
13:11 14.5 °F 6.6 °F 1023.9 in NE 5.6 mph   59 % 0.0 in 610.0 W/m2 CLR
13:12 14.5 °F 6.8 °F 1023.9 in NE 5.6 mph   60 % 0.0 in 610.0 W/m2 CLR
13:17 14.7 °F 6.6 °F 1023.9 in Calm     58 % 0.0 in 613.0 W/m2 CLR
13:22 14.8 °F 6.4 °F 1023.9 in Calm     57 % 0.0 in 615.0 W/m2 CLR
13:27 15.1 °F 6.7 °F 1023.9 in Calm     57 % 0.0 in 599.0 W/m2 CLR
13:32 15.4 °F 6.4 °F 1023.6 in Calm     55 % 0.0 in 582.0 W/m2 CLR
13:37 15.8 °F 6.5 °F 1023.6 in Calm     54 % 0.0 in 606.0 W/m2 CLR
13:42 15.9 °F 6.1 °F 1023.2 in Calm     52 % 0.0 in 547.0 W/m2 CLR
13:47 15.9 °F 6.3 °F 1023.2 in Calm     53 % 0.0 in 603.0 W/m2 CLR
13:52 16.3 °F 6.7 °F 1023.2 in Calm     53 % 0.0 in 555.0 W/m2 CLR
13:57 16.8 °F 6.3 °F 1023.2 in ENE 3.7 mph 3.7 mph 50 % 0.0 in 605.0 W/m2 CLR
14:02 16.6 °F 5.8 °F 1022.9 in Calm     49 % 0.0 in 591.0 W/m2 CLR
14:07 16.6 °F 6.1 °F 1022.9 in NE 1.9 mph   50 % 0.0 in 580.0 W/m2 CLR
14:12 16.5 °F 6.1 °F 1022.6 in Calm     50 % 0.0 in 513.0 W/m2 CLR
14:17 16.5 °F 6.1 °F 1022.6 in Calm     50 % 0.0 in 520.0 W/m2 CLR
14:22 16.7 °F 6.5 °F 1022.6 in Calm     51 % 0.0 in 559.0 W/m2 CLR
14:27 16.9 °F 6.2 °F 1022.6 in NNE 3.7 mph 3.7 mph 49 % 0.0 in 529.0 W/m2 CLR
14:32 17.0 °F 5.9 °F 1022.6 in Calm     48 % 0.0 in 494.0 W/m2 CLR
14:37 16.9 °F 6.1 °F 1022.2 in Calm     49 % 0.0 in 513.0 W/m2 CLR
14:42 17.1 °F 5.9 °F 1022.2 in Calm     48 % 0.0 in 517.0 W/m2 CLR
14:47 17.3 °F 6.2 °F 1022.2 in NNE 3.7 mph 3.7 mph 48 % 0.0 in 401.0 W/m2 CLR
14:52 17.2 °F 6.3 °F 1021.9 in ENE 3.7 mph 3.7 mph 49 % 0.0 in 464.0 W/m2 CLR
14:57 17.1 °F 6.6 °F 1021.9 in ENE 3.7 mph 3.7 mph 50 % 0.0 in 471.0 W/m2 CLR
15:02 17.0 °F 6.5 °F 1021.9 in Calm     50 % 0.0 in 517.0 W/m2 CLR
15:07 17.0 °F 7.1 °F 1021.9 in ENE 5.6 mph 5.6 mph 52 % 0.0 in 515.0 W/m2 CLR
15:12 17.1 °F 6.6 °F 1021.9 in NNE 3.7 mph   50 % 0.0 in 464.0 W/m2 CLR
15:17 17.1 °F 6.9 °F 1021.6 in NNE 5.6 mph 5.6 mph 51 % 0.0 in 459.0 W/m2 CLR
15:22 17.2 °F 6.9 °F 1021.6 in ENE 11.1 mph 11.1 mph 51 % 0.0 in 457.0 W/m2 CLR
15:27 17.2 °F 6.9 °F 1021.6 in ENE 5.6 mph 5.6 mph 51 % 0.0 in 452.0 W/m2 CLR
15:32 17.1 °F 6.9 °F 1021.6 in NE 8.0 mph 8.0 mph 51 % 0.0 in 438.0 W/m2 CLR
15:37 17.1 °F 6.9 °F 1021.6 in NE 7.4 mph 7.4 mph 51 % 0.0 in 429.0 W/m2 CLR
15:42 17.2 °F 6.7 °F 1021.6 in NNE 5.6 mph 5.6 mph 50 % 0.0 in 415.0 W/m2 CLR
15:47 17.1 °F 6.3 °F 1021.2 in NNE 7.4 mph 7.4 mph 49 % 0.0 in 401.0 W/m2 CLR
15:52 17.1 °F 6.8 °F 1021.2 in North 9.3 mph 9.3 mph 51 % 0.0 in 385.0 W/m2 CLR
15:57 17.1 °F 6.9 °F 1021.2 in NE 11.3 mph 11.3 mph 51 % 0.0 in 376.0 W/m2 CLR
16:02 17.0 °F 6.8 °F 1021.2 in NNE 11.1 mph 11.1 mph 51 % 0.0 in 360.0 W/m2 CLR
16:07 17.0 °F 7.1 °F 1021.2 in NE 9.3 mph 9.3 mph 52 % 0.0 in 330.0 W/m2 CLR
16:12 17.1 °F 6.8 °F 1021.2 in Calm   0.2 mph 51 % 0.0 in 323.0 W/m2 CLR
16:17 17.1 °F 7.1 °F 1021.2 in NNE 7.4 mph 7.4 mph 52 % 0.0 in 294.0 W/m2 CLR
16:22 17.0 °F 6.8 °F 1021.2 in NE 7.4 mph 7.4 mph 51 % 0.0 in 301.0 W/m2 CLR
16:27 17.0 °F 6.8 °F 1020.9 in North 3.7 mph 3.7 mph 51 % 0.0 in 279.0 W/m2 CLR
16:32 16.9 °F 6.7 °F 1020.9 in NNE 9.3 mph 9.3 mph 51 % 0.0 in 271.0 W/m2 CLR
16:37 16.9 °F 6.4 °F 1020.9 in NNE 11.1 mph 11.1 mph 50 % 0.0 in 232.0 W/m2 CLR
16:42 16.9 °F 6.4 °F 1020.9 in NNE 7.4 mph 7.4 mph 50 % 0.0 in 218.0 W/m2 CLR
16:47 16.8 °F 6.3 °F 1020.9 in Calm     50 % 0.0 in 209.0 W/m2 CLR
16:52 16.9 °F 6.4 °F 1020.9 in NNE 5.6 mph 5.6 mph 50 % 0.0 in 202.0 W/m2 CLR
16:57 16.9 °F 6.4 °F 1020.9 in NNE 5.6 mph 5.6 mph 50 % 0.0 in 199.0 W/m2 CLR
17:02 16.9 °F 6.4 °F 1020.9 in NE 5.6 mph 5.6 mph 50 % 0.0 in 190.0 W/m2 CLR
17:07 16.9 °F 6.7 °F 1020.5 in NNE 5.6 mph 5.6 mph 51 % 0.0 in 176.0 W/m2 CLR
17:12 16.8 °F 6.3 °F 1020.5 in NE 7.4 mph 7.4 mph 50 % 0.0 in 165.0 W/m2 CLR
17:17 16.7 °F 6.2 °F 1020.5 in Calm     50 % 0.0 in 158.0 W/m2 CLR
17:22 16.7 °F 6.5 °F 1020.5 in Calm     51 % 0.0 in 146.0 W/m2 CLR
17:27 16.7 °F 6.8 °F 1020.5 in Calm     52 % 0.0 in 132.0 W/m2 CLR
17:28 16.7 °F 6.8 °F 1020.5 in Calm     52 % 0.0 in 128.0 W/m2 CLR
17:33 16.7 °F 6.5 °F 1020.5 in Calm     51 % 0.0 in 114.0 W/m2 CLR
17:38 16.6 °F 6.7 °F 1020.5 in Calm     52 % 0.0 in 102.0 W/m2 CLR
17:43 16.5 °F 6.6 °F 1020.5 in Calm     52 % 0.0 in 93.0 W/m2 CLR
17:48 16.4 °F 6.8 °F 1020.5 in Calm     53 % 0.0 in 86.0 W/m2 CLR
17:53 16.4 °F 6.5 °F 1020.5 in NNE 1.6 mph 1.6 mph 52 % 0.0 in 77.0 W/m2 FEW
17:58 16.3 °F 6.7 °F 1020.5 in Calm     53 % 0.0 in 67.0 W/m2 FEW
18:03 16.1 °F 7.1 °F 1020.5 in Calm     55 % 0.0 in 56.0 W/m2 SCT
18:08 15.9 °F 6.6 °F 1020.5 in Calm     54 % 0.0 in 46.0 W/m2 SCT
18:13 15.7 °F 6.4 °F 1020.5 in Calm     54 % 0.0 in 39.0 W/m2 BKN
18:18 15.6 °F 6.3 °F 1020.5 in Calm     54 % 0.0 in 32.0 W/m2 BKN
18:23 15.4 °F 6.4 °F 1020.5 in Calm     55 % 0.0 in 25.0 W/m2 BKN
18:28 15.3 °F 6.3 °F 1020.5 in Calm     55 % 0.0 in 18.0 W/m2 BKN
18:33 15.2 °F 6.5 °F 1020.5 in Calm     56 % 0.0 in 12.0 W/m2 BKN
18:38 15.1 °F 6.4 °F 1020.5 in Calm     56 % 0.0 in 9.0 W/m2 BKN
18:43 14.9 °F 6.2 °F 1020.5 in Calm     56 % 0.0 in 5.0 W/m2 OVC
18:48 14.8 °F 6.3 °F 1020.5 in Calm     57 % 0.0 in 0.0 W/m2 OVC
18:53 14.6 °F 6.4 °F 1020.5 in Calm     58 % 0.0 in 0.0 W/m2 CLR
18:58 14.4 °F 6.2 °F 1020.9 in Calm     58 % 0.0 in 0.0 W/m2 CLR
19:03 14.2 °F 6.8 °F 1020.9 in Calm     61 % 0.0 in 0.0 W/m2 CLR
19:08 13.9 °F 6.8 °F 1020.9 in Calm     62 % 0.0 in 0.0 W/m2 CLR
19:13 13.6 °F 6.7 °F 1020.9 in Calm     63 % 0.0 in 0.0 W/m2 CLR
19:18 13.2 °F 6.6 °F 1020.9 in Calm     64 % 0.0 in 0.0 W/m2 CLR
19:23 12.9 °F 6.9 °F 1020.9 in Calm     67 % 0.0 in 0.0 W/m2 CLR
19:28 12.4 °F 6.7 °F 1020.9 in Calm     68 % 0.0 in 0.0 W/m2 CLR
19:33 12.1 °F 6.8 °F 1020.9 in Calm     70 % 0.0 in 0.0 W/m2 CLR
19:38 11.8 °F 6.9 °F 1020.9 in Calm     72 % 0.0 in 0.0 W/m2 CLR
19:43 11.4 °F 6.7 °F 1020.9 in Calm     73 % 0.0 in 0.0 W/m2 CLR
19:48 11.1 °F 6.6 °F 1021.2 in Calm     74 % 0.0 in 0.0 W/m2 CLR
19:53 10.9 °F 6.6 °F 1021.2 in Calm     75 % 0.0 in 0.0 W/m2 CLR
19:58 10.7 °F 6.4 °F 1021.2 in Calm     75 % 0.0 in 0.0 W/m2 CLR
20:03 10.3 °F 6.3 °F 1021.2 in Calm     76 % 0.0 in 0.0 W/m2 CLR
20:08 10.0 °F 6.3 °F 1021.2 in Calm     78 % 0.0 in 0.0 W/m2 CLR
20:13 9.8 °F 6.4 °F 1021.2 in Calm     79 % 0.0 in 0.0 W/m2 CLR
20:19 9.7 °F 6.2 °F 1021.2 in Calm     79 % 0.0 in 0.0 W/m2 CLR
20:23 9.6 °F 6.2 °F 1021.2 in Calm     79 % 0.0 in 0.0 W/m2 CLR
20:28 9.5 °F 6.2 °F 1021.2 in Calm     80 % 0.0 in 0.0 W/m2 CLR
20:33 9.3 °F 6.1 °F 1021.2 in Calm     80 % 0.0 in 0.0 W/m2 CLR
20:34 9.3 °F 6.1 °F 1021.2 in Calm     80 % 0.0 in 0.0 W/m2 CLR
20:39 9.2 °F 6.1 °F 1021.2 in Calm     81 % 0.0 in 0.0 W/m2 CLR
20:44 9.0 °F 5.9 °F 1021.2 in Calm     81 % 0.0 in 0.0 W/m2 CLR
20:49 8.9 °F 6.1 °F 1021.6 in Calm     82 % 0.0 in 0.0 W/m2 CLR
20:54 8.8 °F 5.9 °F 1021.6 in Calm     82 % 0.0 in 0.0 W/m2 CLR
20:59 8.8 °F 5.9 °F 1021.6 in Calm     82 % 0.0 in 0.0 W/m2 CLR
21:04 8.6 °F 5.9 °F 1021.6 in Calm     83 % 0.0 in 0.0 W/m2 CLR
21:09 8.5 °F 5.8 °F 1021.6 in Calm     83 % 0.0 in 0.0 W/m2 CLR
21:14 8.4 °F 5.7 °F 1021.6 in Calm     83 % 0.0 in 0.0 W/m2 CLR
21:19 8.3 °F 5.6 °F 1021.6 in Calm     83 % 0.0 in 0.0 W/m2 CLR
21:24 8.3 °F 5.6 °F 1021.6 in Calm     83 % 0.0 in 0.0 W/m2 CLR
21:29 8.1 °F 5.6 °F 1021.6 in Calm     84 % 0.0 in 0.0 W/m2 CLR
21:34 8.0 °F 5.4 °F 1021.6 in Calm     84 % 0.0 in 0.0 W/m2 CLR
21:39 7.8 °F 5.3 °F 1021.6 in Calm     84 % 0.0 in 0.0 W/m2 CLR
21:44 7.7 °F 5.2 °F 1021.6 in Calm     84 % 0.0 in 0.0 W/m2 CLR
21:49 7.7 °F 5.3 °F 1021.6 in SW 5.6 mph 5.6 mph 85 % 0.0 in 0.0 W/m2 CLR
21:54 7.7 °F 5.3 °F 1021.6 in Calm     85 % 0.0 in 0.0 W/m2 CLR
21:59 7.6 °F 5.2 °F 1021.6 in Calm     85 % 0.0 in 0.0 W/m2 CLR
22:04 7.6 °F 5.2 °F 1021.6 in Calm     85 % 0.0 in 0.0 W/m2 CLR
22:09 7.5 °F 5.2 °F 1021.6 in Calm     85 % 0.0 in 0.0 W/m2 CLR
22:14 7.4 °F 5.1 °F 1021.6 in Calm     85 % 0.0 in 0.0 W/m2 CLR
22:19 7.4 °F 5.1 °F 1021.6 in Calm     85 % 0.0 in 0.0 W/m2 CLR
22:24 7.4 °F 5.1 °F 1021.6 in Calm     85 % 0.0 in 0.0 W/m2 CLR
22:29 7.2 °F 4.9 °F 1021.6 in Calm     85 % 0.0 in 0.0 W/m2 CLR
22:34 7.1 °F 4.9 °F 1021.6 in Calm     86 % 0.0 in 0.0 W/m2 CLR
22:39 7.1 °F 4.9 °F 1021.6 in Calm     86 % 0.0 in 0.0 W/m2 CLR
22:44 7.2 °F 5.0 °F 1021.6 in Calm     86 % 0.0 in 0.0 W/m2 CLR
22:49 7.1 °F 4.9 °F 1021.6 in Calm     86 % 0.0 in 0.0 W/m2 CLR
22:54 7.1 °F 4.9 °F 1021.6 in Calm     86 % 0.0 in 0.0 W/m2 CLR
22:59 7.0 °F 4.8 °F 1021.6 in Calm     86 % 0.0 in 0.0 W/m2 CLR
23:04 6.9 °F 4.8 °F 1021.6 in Calm     86 % 0.0 in 0.0 W/m2 CLR
23:09 6.9 °F 4.9 °F 1021.6 in Calm     87 % 0.0 in 0.0 W/m2 CLR
23:14 6.8 °F 4.8 °F 1021.6 in Calm     87 % 0.0 in 0.0 W/m2 CLR
23:19 6.7 °F 4.7 °F 1021.2 in Calm     87 % 0.0 in 0.0 W/m2 CLR
23:24 6.7 °F 4.7 °F 1021.2 in Calm     87 % 0.0 in 0.0 W/m2 CLR
23:29 6.7 °F 4.8 °F 1021.2 in Calm     88 % 0.0 in 0.0 W/m2 CLR
23:34 6.7 °F 4.7 °F 1021.2 in Calm     87 % 0.0 in 0.0 W/m2 CLR
23:39 6.6 °F 4.6 °F 1021.2 in Calm     87 % 0.0 in 0.0 W/m2 CLR
23:44 6.6 °F 4.6 °F 1021.6 in Calm     87 % 0.0 in 0.0 W/m2 CLR
23:49 6.5 °F 4.5 °F 1021.2 in Calm     87 % 0.0 in 0.0 W/m2 CLR
23:54 6.4 °F 4.6 °F 1021.2 in Calm     88 % 0.0 in 0.0 W/m2 CLR
23:59 6.4 °F 4.6 °F 1021.2 in SW 3.7 mph 3.7 mph 88 % 0.0 in 0.0 W/m2 CLR
Lo Temps de Massalio
Compliments of Weather Underground - 1.25 mb